KBIS/BIS METAR and TAF weather

Enter ICAO airport designator
Station Type Date Time Source
KBIS METAR 2018/01/22 11:52 UTC NOAA

KBIS 221152Z 08003KT 1/4SM FZFG VV002 M08/M09 A3003 RMK AO2 SLP198 I1001 I6006 T10781089 11072 21094 50005 $


Station Type Date Time Source
KBIS Decoded METAR 2018/01/22 11:52 UTC NOAA

BISMARCK MUNICIPAL AIRPORT, ND, United States (KBIS) 46-47N 100-45W 503M
Jan 22, 2018 - 06:52 AM EST / 2018.01.22 1152 UTC
Wind: from the E (080 degrees) at 3 MPH (3 KT):0
Visibility: 1/4 mile(s):0
Sky conditions: obscured
Weather: freezing fog
Temperature: 18.0 F (-7.8 C)
Dew Point: 16.0 F (-8.9 C)
Relative Humidity: 91%
Pressure (altimeter): 30.03 in. Hg (1016 hPa)
Pressure tendency: 0.01 inches (0.5 hPa) higher than three hours ago
ob: KBIS 221152Z 08003KT 1/4SM FZFG VV002 M08/M09 A3003 RMK AO2 SLP198 I1001 I6006 T10781089 11072 21094 50005
cycle: 12

Station Type Date Time Source
KBIS TAF 2018/01/22 12:24 UTC NOAA

TAF KBIS 221123Z 2212/2312 06003KT 1/4SM FZFG VV002
FM221700 34004KT 1/2SM FZFG OVC003
FM222100 33004KT 3SM BR OVC006
FM230200 VRB03KT 3SM BR BKN003


Example: see airport list